Time;durP1;ratioP1;P1;durP2;ratioP2;P2;SDS_P1;SDS_P2;PMS_P1;PMS_P2;Temp;Humidity;BMP_temperature;BMP_pressure;BME280_temperature;BME280_humidity;BME280_pressure;Samples;Min_cycle;Max_cycle;Signal;HPM_P1;HPM_P2
2022/06/23 00:00:22;;;;;;;25.40;23.30;;;19.80;99.90;;;;;;6050594;23;20800;-75
2022/06/23 00:02:49;;;;;;;27.60;24.97;;;19.80;99.90;;;;;;6040034;23;20772;-75
2022/06/23 00:05:21;;;;;;;28.47;25.93;;;19.90;99.90;;;;;;6051716;23;20440;-74
2022/06/23 00:07:53;;;;;;;27.23;24.77;;;19.90;99.90;;;;;;6034502;23;20490;-74
2022/06/23 00:10:23;;;;;;;27.97;25.47;;;19.80;99.90;;;;;;6044113;23;20469;-75
2022/06/23 00:12:50;;;;;;;27.33;24.80;;;19.80;99.90;;;;;;6051166;23;20529;-75
2022/06/23 00:15:27;;;;;;;26.27;23.87;;;19.90;99.90;;;;;;6062871;23;20477;-74
2022/06/23 00:18:00;;;;;;;24.17;22.00;;;19.90;99.90;;;;;;6060270;23;20970;-74
2022/06/23 00:20:32;;;;;;;28.17;25.50;;;19.80;99.90;;;;;;6053184;23;21211;-74
2022/06/23 00:23:06;;;;;;;30.50;27.27;;;19.70;99.90;;;;;;6059333;23;20866;-74
2022/06/23 00:25:43;;;;;;;29.50;26.77;;;19.70;99.90;;;;;;6048787;23;20806;-74
2022/06/23 00:28:23;;;;;;;27.93;25.10;;;19.70;99.90;;;;;;6049360;23;20497;-75
2022/06/23 00:30:54;;;;;;;31.27;28.27;;;19.70;99.90;;;;;;6059365;23;20465;-75
2022/06/23 00:33:24;;;;;;;26.27;23.77;;;19.70;99.90;;;;;;6060165;23;20439;-74
2022/06/23 00:35:53;;;;;;;27.30;24.90;;;19.70;99.90;;;;;;6054158;23;20462;-74
2022/06/23 00:38:26;;;;;;;29.63;27.03;;;19.60;99.90;;;;;;6060083;23;20955;-74
2022/06/23 00:40:54;;;;;;;26.70;24.10;;;19.60;99.90;;;;;;6050211;23;20765;-74
2022/06/23 00:43:22;;;;;;;26.37;23.80;;;19.60;99.90;;;;;;6046138;23;20444;-74
2022/06/23 00:45:53;;;;;;;26.13;23.60;;;19.50;99.90;;;;;;6063532;23;20510;-74
2022/06/23 00:48:26;;;;;;;27.77;25.17;;;19.50;99.90;;;;;;6047958;23;20456;-74
2022/06/23 00:51:00;;;;;;;32.43;29.03;;;19.40;99.90;;;;;;6056715;23;20447;-74
2022/06/23 00:53:33;;;;;;;26.93;24.73;;;19.40;99.90;;;;;;6041634;23;20458;-74
2022/06/23 00:56:09;;;;;;;27.20;24.80;;;19.40;99.90;;;;;;6060553;23;20585;-74
2022/06/23 00:58:43;;;;;;;24.80;22.83;;;19.40;99.90;;;;;;6040221;23;20516;-74
2022/06/23 01:01:18;;;;;;;23.07;21.10;;;19.40;99.90;;;;;;6056018;23;20947;-74
2022/06/23 01:03:54;;;;;;;68.53;25.73;;;19.30;99.90;;;;;;6040852;23;20530;-75
2022/06/23 01:06:29;;;;;;;142.77;25.70;;;19.30;99.90;;;;;;6036477;23;20448;-74
2022/06/23 01:09:00;;;;;;;58.63;22.20;;;19.30;99.90;;;;;;6043147;23;20542;-74
2022/06/23 01:11:35;;;;;;;30.60;22.67;;;19.30;99.90;;;;;;6048159;23;20439;-74
2022/06/23 01:14:13;;;;;;;24.40;22.20;;;19.30;99.90;;;;;;6056258;23;20439;-74
2022/06/23 01:16:44;;;;;;;26.93;24.33;;;19.20;99.90;;;;;;6052420;23;20442;-75
2022/06/23 01:19:41;;;;;;;28.47;25.80;;;19.20;99.90;;;;;;6051608;23;20475;-74
2022/06/23 01:22:21;;;;;;;25.13;22.80;;;19.20;99.90;;;;;;6060086;23;20518;-74
2022/06/23 01:24:56;;;;;;;23.03;21.20;;;19.20;99.90;;;;;;6048867;23;20474;-75
2022/06/23 01:27:42;;;;;;;26.63;24.10;;;19.20;99.90;;;;;;6034809;23;20467;-74
2022/06/23 01:30:11;;;;;;;27.43;25.10;;;19.20;99.90;;;;;;6042609;23;20451;-74
2022/06/23 01:32:42;;;;;;;27.00;24.80;;;19.20;99.90;;;;;;6060464;23;20514;-74
2022/06/23 01:35:15;;;;;;;27.93;25.53;;;19.20;99.90;;;;;;6056308;23;20450;-74
2022/06/23 01:37:45;;;;;;;26.97;24.50;;;19.20;99.90;;;;;;6061841;23;20831;-74
2022/06/23 01:40:20;;;;;;;24.87;22.57;;;19.20;99.90;;;;;;6040051;23;20472;-74
2022/06/23 01:42:54;;;;;;;27.10;24.70;;;19.20;99.90;;;;;;6040270;23;20784;-75
2022/06/23 01:45:25;;;;;;;27.50;24.70;;;19.20;99.90;;;;;;6059625;23;20843;-74
2022/06/23 01:47:56;;;;;;;23.83;21.90;;;19.20;99.90;;;;;;6050446;23;20447;-75
2022/06/23 01:50:34;;;;;;;22.40;20.43;;;19.20;99.90;;;;;;6038584;23;20459;-74
2022/06/23 01:53:23;;;;;;;21.50;19.80;;;19.20;99.90;;;;;;6057566;23;20446;-75
2022/06/23 01:56:05;;;;;;;21.80;20.17;;;19.20;99.90;;;;;;6050148;23;20500;-75
2022/06/23 01:58:47;;;;;;;25.37;22.97;;;19.10;99.90;;;;;;6049318;23;20575;-74
2022/06/23 02:01:19;;;;;;;25.50;23.20;;;19.10;99.90;;;;;;6051586;23;20857;-74
2022/06/23 02:03:54;;;;;;;28.23;25.50;;;19.10;99.90;;;;;;6052967;23;20447;-74
2022/06/23 02:06:29;;;;;;;22.77;20.83;;;19.00;99.90;;;;;;6047231;23;20444;-74
2022/06/23 02:09:05;;;;;;;24.60;22.60;;;19.10;99.90;;;;;;6039369;23;20475;-75
2022/06/23 02:11:39;;;;;;;26.47;24.07;;;19.10;99.90;;;;;;6051926;23;20439;-74
2022/06/23 02:14:16;;;;;;;23.83;21.83;;;19.10;99.90;;;;;;6050416;23;20443;-74
2022/06/23 02:16:48;;;;;;;24.93;22.73;;;19.10;99.90;;;;;;6042504;23;20437;-74
2022/06/23 02:19:21;;;;;;;22.43;20.53;;;19.10;99.90;;;;;;6057468;23;21042;-75
2022/06/23 02:21:53;;;;;;;23.00;21.07;;;19.10;99.90;;;;;;6055617;23;20447;-74
2022/06/23 02:24:26;;;;;;;23.33;21.07;;;19.20;99.90;;;;;;6043081;23;20452;-75
2022/06/23 02:27:02;;;;;;;24.23;22.00;;;19.20;99.90;;;;;;6040069;23;20466;-75
2022/06/23 02:29:39;;;;;;;22.93;20.90;;;19.20;99.90;;;;;;6036457;23;20456;-74
2022/06/23 02:32:15;;;;;;;22.87;20.77;;;19.20;99.90;;;;;;6042546;23;20946;-74
2022/06/23 02:34:47;;;;;;;23.60;21.20;;;19.20;99.90;;;;;;6037734;23;20519;-74
2022/06/23 02:37:50;;;;;;;22.37;20.53;;;19.20;99.90;;;;;;6057281;23;20447;-75
2022/06/23 02:40:21;;;;;;;20.67;18.97;;;19.20;99.90;;;;;;6061524;23;20814;-74
2022/06/23 02:42:53;;;;;;;23.37;21.37;;;19.20;99.90;;;;;;6056251;23;20444;-75
2022/06/23 02:46:05;;;;;;;26.47;23.67;;;19.20;99.90;;;;;;6047843;23;20828;-74
2022/06/23 02:49:07;;;;;;;23.83;21.70;;;19.20;99.90;;;;;;6060104;23;20459;-75
2022/06/23 02:52:03;;;;;;;25.90;23.60;;;19.20;99.90;;;;;;6058174;23;20509;-75
2022/06/23 02:54:44;;;;;;;24.53;21.93;;;19.10;99.90;;;;;;6057605;23;20470;-75
2022/06/23 02:57:33;;;;;;;64.10;27.00;;;19.00;99.90;;;;;;6050419;23;20439;-75
2022/06/23 03:00:06;;;;;;;47.47;23.77;;;18.90;99.90;;;;;;6057260;23;20467;-75
2022/06/23 03:02:38;;;;;;;25.07;22.40;;;18.90;99.90;;;;;;6045809;23;20485;-75
2022/06/23 03:05:15;;;;;;;40.40;25.70;;;18.80;99.90;;;;;;6052327;23;20441;-75
2022/06/23 03:07:48;;;;;;;35.03;23.97;;;18.80;99.90;;;;;;6040054;23;20471;-75
2022/06/23 03:10:20;;;;;;;28.43;24.43;;;18.80;99.90;;;;;;6038916;23;20448;-75
2022/06/23 03:12:54;;;;;;;77.63;30.03;;;18.80;99.90;;;;;;6056111;23;20476;-75
2022/06/23 03:15:26;;;;;;;38.73;23.03;;;18.70;99.90;;;;;;6051859;23;20451;-75
2022/06/23 03:17:58;;;;;;;38.53;22.87;;;18.70;99.90;;;;;;6047863;23;20478;-75
2022/06/23 03:20:37;;;;;;;66.13;25.37;;;18.70;99.90;;;;;;6046259;23;20472;-75
2022/06/23 03:23:13;;;;;;;40.90;21.53;;;18.70;99.90;;;;;;6056236;23;20444;-75
2022/06/23 03:25:46;;;;;;;22.97;18.93;;;18.70;99.90;;;;;;6059803;23;20443;-75
2022/06/23 03:28:19;;;;;;;52.53;22.40;;;18.70;99.90;;;;;;6060594;23;20470;-75
2022/06/23 03:30:49;;;;;;;21.47;19.40;;;18.60;99.90;;;;;;6059245;23;21120;-75
2022/06/23 03:33:22;;;;;;;32.67;20.40;;;18.60;99.90;;;;;;6035759;23;20443;-75
2022/06/23 03:35:56;;;;;;;22.83;20.77;;;18.60;99.90;;;;;;6047538;23;20435;-75
2022/06/23 03:44:04;;;;;;;18.13;16.53;;;18.70;99.90;;;;;;6048673;23;20450;-75
2022/06/23 03:46:36;;;;;;;20.37;18.50;;;18.70;99.90;;;;;;6040241;23;20532;-75
2022/06/23 03:49:14;;;;;;;20.83;18.93;;;18.70;99.90;;;;;;6056018;23;20463;-75
2022/06/23 03:51:52;;;;;;;18.70;17.20;;;18.70;99.90;;;;;;6062171;23;20442;-75
2022/06/23 03:54:23;;;;;;;17.17;15.77;;;18.70;99.90;;;;;;6048472;23;20450;-75
2022/06/23 03:56:53;;;;;;;22.07;20.07;;;18.70;99.90;;;;;;6046010;23;20453;-75
2022/06/23 03:59:26;;;;;;;25.73;22.00;;;18.70;99.90;;;;;;6053910;23;20503;-75
2022/06/23 04:01:57;;;;;;;24.87;20.90;;;18.70;99.90;;;;;;6052544;23;21085;-75
2022/06/23 04:04:39;;;;;;;24.60;22.27;;;18.70;99.90;;;;;;6041228;23;22566;-75
2022/06/23 04:07:35;;;;;;;21.37;19.53;;;18.70;99.90;;;;;;6056578;23;20462;-75
2022/06/23 04:10:04;;;;;;;20.60;18.70;;;18.70;99.90;;;;;;6056770;23;20447;-75
2022/06/23 04:12:32;;;;;;;25.50;22.90;;;18.70;99.90;;;;;;6054921;23;20444;-75
2022/06/23 04:15:05;;;;;;;21.93;19.90;;;18.70;99.90;;;;;;6045172;23;20574;-74
2022/06/23 04:17:41;;;;;;;19.53;17.60;;;18.80;99.90;;;;;;6045008;23;20459;-75
2022/06/23 04:20:16;;;;;;;17.77;16.10;;;18.80;99.90;;;;;;6054436;23;20501;-75
2022/06/23 04:22:49;;;;;;;17.83;16.13;;;18.80;99.90;;;;;;6057610;23;20451;-75
2022/06/23 04:25:21;;;;;;;18.47;16.50;;;18.90;99.90;;;;;;6048403;23;20467;-74
2022/06/23 04:27:50;;;;;;;14.90;13.60;;;18.90;99.90;;;;;;6050504;23;20462;-75
2022/06/23 04:30:32;;;;;;;16.60;15.10;;;18.90;99.90;;;;;;6055742;23;20446;-75
2022/06/23 04:33:03;;;;;;;20.23;18.10;;;18.90;99.90;;;;;;6052272;23;20459;-75
2022/06/23 04:35:36;;;;;;;17.00;15.13;;;18.90;99.90;;;;;;6053170;23;20469;-75
2022/06/23 04:38:18;;;;;;;15.30;13.70;;;18.90;99.90;;;;;;6051293;23;20800;-75
2022/06/23 04:40:49;;;;;;;17.90;16.10;;;18.90;99.90;;;;;;6045340;23;20468;-75
2022/06/23 04:43:20;;;;;;;16.07;14.07;;;18.80;99.90;;;;;;6054784;23;20829;-75
2022/06/23 04:45:56;;;;;;;16.83;15.37;;;18.90;99.90;;;;;;6056335;23;20435;-76
2022/06/23 04:48:29;;;;;;;16.20;14.77;;;18.90;99.90;;;;;;6056055;23;20470;-76
2022/06/23 04:51:02;;;;;;;19.50;17.70;;;18.90;99.90;;;;;;6053748;23;20972;-75
2022/06/23 04:53:50;;;;;;;15.87;14.47;;;18.90;99.90;;;;;;6053983;23;20444;-91
2022/06/23 04:56:29;;;;;;;16.10;14.70;;;19.00;99.90;;;;;;6046622;23;20542;-75
2022/06/23 04:59:00;;;;;;;16.80;15.30;;;19.00;99.90;;;;;;6043796;23;20505;-75
2022/06/23 05:01:37;;;;;;;18.33;16.43;;;18.90;99.90;;;;;;6058160;23;20455;-75
2022/06/23 05:04:11;;;;;;;18.87;17.00;;;18.90;99.90;;;;;;6050874;23;20465;-75
2022/06/23 05:06:42;;;;;;;16.73;15.13;;;18.90;99.90;;;;;;6052004;23;20443;-75
2022/06/23 05:09:19;;;;;;;17.87;16.47;;;19.00;99.90;;;;;;6059158;23;20435;-75
2022/06/23 05:11:50;;;;;;;17.93;16.27;;;19.00;99.90;;;;;;6055260;23;20791;-75
2022/06/23 05:14:23;;;;;;;17.27;15.70;;;19.10;99.90;;;;;;6050494;23;20469;-75
2022/06/23 05:16:53;;;;;;;18.97;17.47;;;19.10;99.90;;;;;;6055402;23;20441;-75
2022/06/23 05:19:26;;;;;;;17.70;16.00;;;19.20;99.90;;;;;;6060798;23;20431;-75
2022/06/23 05:21:57;;;;;;;18.27;16.37;;;19.20;99.90;;;;;;6047149;23;20431;-76
2022/06/23 05:24:28;;;;;;;18.13;16.53;;;19.30;99.90;;;;;;6059253;23;20439;-75
2022/06/23 05:26:58;;;;;;;18.60;17.00;;;19.30;99.90;;;;;;6038956;23;21242;-75
2022/06/23 05:29:30;;;;;;;20.60;18.60;;;19.30;99.90;;;;;;6046415;23;20831;-74
2022/06/23 05:32:00;;;;;;;18.60;16.90;;;19.40;99.90;;;;;;6051639;23;20439;-74
2022/06/23 05:34:32;;;;;;;17.23;15.60;;;19.40;99.90;;;;;;6059804;23;20432;-74
2022/06/23 05:37:06;;;;;;;18.57;16.77;;;19.50;99.90;;;;;;6056032;23;20462;-74
2022/06/23 05:39:44;;;;;;;17.10;15.40;;;19.50;99.90;;;;;;6053744;23;20466;-74
2022/06/23 05:42:17;;;;;;;16.33;14.80;;;19.60;99.90;;;;;;6059636;23;20439;-73
2022/06/23 05:44:49;;;;;;;15.67;14.03;;;19.70;99.90;;;;;;6056930;23;20522;-74
2022/06/23 05:47:19;;;;;;;15.07;13.70;;;19.70;99.90;;;;;;6057401;23;20501;-74
2022/06/23 05:49:52;;;;;;;17.33;14.07;;;19.80;99.90;;;;;;6056328;23;20447;-74
2022/06/23 05:52:23;;;;;;;14.57;13.17;;;19.90;99.90;;;;;;6057772;23;20514;-74
2022/06/23 05:54:56;;;;;;;14.87;12.67;;;20.00;99.90;;;;;;6050703;23;20431;-75
2022/06/23 05:57:31;;;;;;;13.37;12.07;;;20.20;99.90;;;;;;6052434;23;20491;-75
2022/06/23 06:00:04;;;;;;;15.27;13.67;;;20.30;99.90;;;;;;6056081;23;20471;-75
2022/06/23 06:02:40;;;;;;;16.77;15.27;;;20.40;99.90;;;;;;6054601;23;20444;-75
2022/06/23 06:05:18;;;;;;;15.70;14.30;;;20.40;99.90;;;;;;6055607;23;20480;-75
2022/06/23 06:07:46;;;;;;;16.53;15.13;;;20.60;99.90;;;;;;6054781;23;20470;-75
2022/06/23 06:10:19;;;;;;;16.00;14.30;;;20.60;99.90;;;;;;6052544;23;20458;-74
2022/06/23 06:13:11;;;;;;;17.10;15.60;;;20.70;99.90;;;;;;6056952;23;20435;-75
2022/06/23 06:15:44;;;;;;;17.17;15.57;;;20.90;99.90;;;;;;6054712;23;20443;-74
2022/06/23 06:18:20;;;;;;;16.67;15.17;;;21.10;99.90;;;;;;6055350;23;20534;-75
2022/06/23 06:20:48;;;;;;;15.40;14.07;;;21.30;99.90;;;;;;6055788;23;20473;-74
2022/06/23 06:23:20;;;;;;;17.70;16.00;;;21.30;99.90;;;;;;6055714;23;20443;-74
2022/06/23 06:25:50;;;;;;;18.53;16.77;;;21.20;99.90;;;;;;6055649;23;20451;-75
2022/06/23 06:28:19;;;;;;;16.57;14.90;;;21.20;99.90;;;;;;6057182;23;20502;-74
2022/06/23 06:31:00;;;;;;;23.13;16.60;;;21.30;99.90;;;;;;6052893;23;20439;-74
2022/06/23 06:33:50;;;;;;;16.57;14.87;;;21.40;99.90;;;;;;6056147;23;20438;-76
2022/06/23 06:36:34;;;;;;;15.73;14.20;;;21.50;99.90;;;;;;6057188;23;20449;-76
2022/06/23 06:39:07;;;;;;;14.70;13.30;;;21.60;99.90;;;;;;6055085;23;20798;-76
2022/06/23 06:41:37;;;;;;;12.60;11.60;;;21.70;99.90;;;;;;6054685;23;20456;-76
2022/06/23 06:44:05;;;;;;;13.63;12.30;;;21.80;99.90;;;;;;6056559;23;20431;-75
2022/06/23 06:46:32;;;;;;;12.53;11.43;;;21.80;99.90;;;;;;6054254;23;20435;-76
2022/06/23 06:49:01;;;;;;;13.17;10.50;;;22.00;99.90;;;;;;6057365;23;20511;-76
2022/06/23 06:51:29;;;;;;;13.90;12.60;;;22.10;99.90;;;;;;6056236;23;20502;-75
2022/06/23 06:54:00;;;;;;;14.00;12.53;;;22.20;99.90;;;;;;6057242;23;20497;-76
2022/06/23 06:56:32;;;;;;;11.57;10.47;;;22.20;99.90;;;;;;6055106;23;20444;-76
2022/06/23 06:59:06;;;;;;;11.73;10.53;;;22.20;99.90;;;;;;6056115;23;20497;-76
2022/06/23 07:01:36;;;;;;;12.17;11.00;;;22.30;99.90;;;;;;6054279;23;20625;-76
2022/06/23 07:04:04;;;;;;;14.60;10.63;;;22.50;99.90;;;;;;6056437;23;20427;-75
2022/06/23 07:06:36;;;;;;;10.73;9.63;;;22.60;99.90;;;;;;6053444;23;20455;-76
2022/06/23 07:09:12;;;;;;;11.33;10.33;;;22.70;99.90;;;;;;6056298;23;20435;-76
2022/06/23 07:11:46;;;;;;;12.40;9.60;;;22.60;99.90;;;;;;6057891;23;20949;-76
2022/06/23 07:14:23;;;;;;;14.33;9.70;;;22.60;99.90;;;;;;6049438;23;20442;-76
2022/06/23 07:16:55;;;;;;;10.27;7.70;;;22.70;99.90;;;;;;6059638;23;20988;-75
2022/06/23 07:19:29;;;;;;;10.57;8.43;;;22.60;99.90;;;;;;6044752;23;20451;-76
2022/06/23 07:22:04;;;;;;;9.80;7.10;;;22.70;99.90;;;;;;6044328;23;20499;-76
2022/06/23 07:24:41;;;;;;;9.70;7.60;;;22.80;99.90;;;;;;6050736;23;20509;-76
2022/06/23 07:27:17;;;;;;;11.50;8.20;;;23.10;99.90;;;;;;6049494;23;20466;-76
2022/06/23 07:29:55;;;;;;;10.30;8.60;;;23.20;99.90;;;;;;6049969;23;20460;-75
2022/06/23 07:32:33;;;;;;;11.20;8.00;;;23.20;99.90;;;;;;6048335;23;20444;-76
2022/06/23 07:35:08;;;;;;;11.63;7.10;;;23.30;99.90;;;;;;6056313;23;20447;-76
2022/06/23 07:37:43;;;;;;;7.13;6.43;;;23.40;99.90;;;;;;6050871;23;20569;-76
2022/06/23 07:40:12;;;;;;;8.57;6.70;;;23.50;99.90;;;;;;6053914;23;20451;-76
2022/06/23 07:42:49;;;;;;;8.03;6.00;;;23.60;99.90;;;;;;6050039;23;20526;-76
2022/06/23 07:45:22;;;;;;;6.57;5.97;;;23.80;99.90;;;;;;6049182;23;20448;-75
2022/06/23 07:47:50;;;;;;;11.60;6.13;;;24.00;99.90;;;;;;6047522;23;20472;-76
2022/06/23 07:50:17;;;;;;;8.60;6.43;;;24.40;99.90;;;;;;6056374;23;20514;-76
2022/06/23 07:52:45;;;;;;;6.63;6.03;;;25.00;99.90;;;;;;6059565;23;20854;-76
2022/06/23 07:55:21;;;;;;;9.10;5.70;;;25.70;99.90;;;;;;6053263;23;20789;-76
2022/06/23 07:57:48;;;;;;;6.33;5.43;;;26.40;99.90;;;;;;6057903;23;20545;-76
2022/06/23 08:00:18;;;;;;;8.03;6.57;;;26.70;99.90;;;;;;6046441;23;20445;-76
2022/06/23 08:02:51;;;;;;;7.00;6.30;;;26.60;99.90;;;;;;6057282;23;20518;-76
2022/06/23 08:05:24;;;;;;;8.93;6.53;;;26.70;99.90;;;;;;6053706;23;20534;-76
2022/06/23 08:07:51;;;;;;;9.43;6.13;;;27.00;99.90;;;;;;6043314;23;20595;-77
2022/06/23 08:10:22;;;;;;;6.73;5.80;;;27.20;99.90;;;;;;6049590;23;20541;-77
2022/06/23 08:12:57;;;;;;;7.47;5.50;;;27.40;99.90;;;;;;6046684;23;20439;-76
2022/06/23 08:18:26;;;;;;;7.00;5.43;;;27.80;99.90;;;;;;6047618;23;20443;-76
2022/06/23 08:21:00;;;;;;;9.27;5.53;;;28.10;99.90;;;;;;6050248;23;20530;-77
2022/06/23 08:23:31;;;;;;;9.27;4.87;;;28.40;99.90;;;;;;6049227;23;20765;-77
2022/06/23 08:26:00;;;;;;;9.80;5.13;;;28.70;99.90;;;;;;6048534;23;20451;-76
2022/06/23 08:28:28;;;;;;;8.40;4.90;;;28.90;99.90;;;;;;6054445;23;20448;-77
2022/06/23 08:30:56;;;;;;;8.70;4.97;;;29.10;99.90;;;;;;6054250;23;20456;-77
2022/06/23 08:33:25;;;;;;;10.20;5.10;;;29.40;99.90;;;;;;6052100;23;20451;-77
2022/06/23 08:35:54;;;;;;;7.80;4.87;;;29.70;99.90;;;;;;6052504;23;20439;-76
2022/06/23 08:38:27;;;;;;;7.10;4.83;;;29.70;99.90;;;;;;6052087;23;20549;-77
2022/06/23 08:41:13;;;;;;;6.37;4.60;;;29.80;99.90;;;;;;6055513;23;20475;-77
2022/06/23 08:43:44;;;;;;;7.43;4.90;;;30.10;99.90;;;;;;6052726;23;20438;-77
2022/06/23 08:46:21;;;;;;;7.67;5.10;;;30.50;99.90;;;;;;6049993;23;20463;-77
2022/06/23 08:48:56;;;;;;;6.33;3.80;;;30.20;99.90;;;;;;6058092;23;20447;-77
2022/06/23 08:51:32;;;;;;;7.30;4.67;;;30.00;99.90;;;;;;6041933;23;20532;-77
2022/06/23 08:54:08;;;;;;;8.20;4.83;;;30.00;99.90;;;;;;6049328;23;20463;-77
2022/06/23 08:56:44;;;;;;;8.83;4.67;;;29.80;99.90;;;;;;6051561;23;20459;-77
2022/06/23 08:59:20;;;;;;;7.30;3.83;;;29.60;99.90;;;;;;6054037;23;20439;-77
2022/06/23 09:01:56;;;;;;;6.93;3.80;;;29.70;99.90;;;;;;6052770;23;20458;-77
2022/06/23 09:04:35;;;;;;;5.20;4.03;;;29.90;99.90;;;;;;6050533;23;20428;-77
2022/06/23 09:07:08;;;;;;;5.70;3.33;;;30.70;99.90;;;;;;6055435;23;20545;-77
2022/06/23 09:09:43;;;;;;;4.93;3.00;;;31.10;99.90;;;;;;6047678;23;20435;-79
2022/06/23 09:12:18;;;;;;;6.00;3.57;;;31.20;99.90;;;;;;6053804;23;20451;-80
2022/06/23 09:15:19;;;;;;;7.27;3.37;;;31.40;99.90;;;;;;6056542;23;20457;-80
2022/06/23 09:18:04;;;;;;;5.40;3.10;;;31.80;99.90;;;;;;6055675;23;20458;-80
2022/06/23 09:20:51;;;;;;;7.20;2.80;;;32.00;97.50;;;;;;6057611;23;20475;-79
2022/06/23 09:23:47;;;;;;;4.20;2.67;;;31.80;97.20;;;;;;6055321;23;20445;-80
2022/06/23 09:26:23;;;;;;;7.70;2.80;;;31.00;97.80;;;;;;6050923;23;20538;-80
2022/06/23 09:28:54;;;;;;;6.30;2.90;;;31.40;98.00;;;;;;6055926;23;20453;-79
2022/06/23 09:31:29;;;;;;;5.97;2.93;;;32.00;97.70;;;;;;6049663;23;20470;-80
2022/06/23 09:34:25;;;;;;;4.33;3.17;;;32.70;97.30;;;;;;6054887;23;20439;-80
2022/06/23 09:37:17;;;;;;;8.43;3.47;;;33.30;96.60;;;;;;6058053;23;20487;-80
2022/06/23 09:40:19;;;;;;;4.70;3.10;;;33.90;94.50;;;;;;6056180;23;20915;-80
2022/06/23 09:43:19;;;;;;;5.73;3.70;;;33.40;94.80;;;;;;6056806;23;20462;-80
2022/06/23 09:46:09;;;;;;;5.17;3.27;;;33.00;94.80;;;;;;5994347;23;20512;-80
2022/06/23 09:49:02;;;;;;;6.47;3.37;;;32.90;94.20;;;;;;6047029;23;20451;-80
2022/06/23 09:51:49;;;;;;;5.00;2.90;;;32.90;93.90;;;;;;6045467;23;21400;-80
2022/06/23 09:54:29;;;;;;;5.67;4.20;;;33.30;93.50;;;;;;6039096;23;20461;-80
2022/06/23 09:57:16;;;;;;;5.20;3.83;;;33.30;94.10;;;;;;6044855;23;20464;-80
2022/06/23 10:00:05;;;;;;;6.70;3.70;;;33.50;94.30;;;;;;6059260;23;20461;-80
2022/06/23 10:02:58;;;;;;;4.53;3.23;;;33.90;93.30;;;;;;6047220;23;20472;-80
2022/06/23 10:05:44;;;;;;;11.07;3.60;;;34.10;93.60;;;;;;6054383;23;20442;-80
2022/06/23 10:08:23;;;;;;;5.30;3.40;;;34.60;92.10;;;;;;6048039;23;20514;-79
2022/06/23 10:11:21;;;;;;;7.20;3.80;;;35.00;92.00;;;;;;6040900;23;20474;-80
2022/06/23 10:14:03;;;;;;;10.13;4.07;;;34.50;92.00;;;;;;6045362;23;20467;-80
2022/06/23 10:16:52;;;;;;;6.20;3.43;;;34.30;92.20;;;;;;6059946;23;20494;-80
2022/06/23 10:19:34;;;;;;;5.80;3.70;;;34.20;92.60;;;;;;6042248;23;20846;-80
2022/06/23 10:22:21;;;;;;;6.70;3.47;;;34.00;91.60;;;;;;6057754;23;20558;-80
2022/06/23 10:25:24;;;;;;;6.07;3.57;;;33.60;92.50;;;;;;6044959;23;20451;-80
2022/06/23 10:28:10;;;;;;;5.97;3.50;;;33.90;92.40;;;;;;6058344;23;20483;-78
2022/06/23 10:30:46;;;;;;;9.07;3.93;;;34.30;91.60;;;;;;6044029;23;20436;-80
2022/06/23 10:33:40;;;;;;;6.37;3.20;;;34.50;91.60;;;;;;6053745;23;20447;-79
2022/06/23 10:36:27;;;;;;;6.43;3.50;;;35.10;90.90;;;;;;6035056;23;20455;-80
2022/06/23 10:39:02;;;;;;;4.50;2.90;;;34.80;85.30;;;;;;6052724;23;20793;-80
2022/06/23 10:41:54;;;;;;;5.70;3.00;;;34.40;84.80;;;;;;6055435;23;20466;-80
2022/06/23 10:44:54;;;;;;;5.43;3.40;;;34.30;85.50;;;;;;6059199;23;20431;-80
2022/06/23 10:47:36;;;;;;;6.87;3.73;;;34.30;87.30;;;;;;6052312;23;20455;-80
2022/06/23 10:50:28;;;;;;;6.83;2.93;;;33.80;88.30;;;;;;6053787;23;20522;-80
2022/06/23 10:53:09;;;;;;;7.70;3.90;;;33.70;88.90;;;;;;6055641;23;21983;-81
2022/06/23 10:55:53;;;;;;;5.70;3.40;;;34.40;88.80;;;;;;6055691;23;20466;-80
2022/06/23 10:58:51;;;;;;;4.73;2.70;;;34.80;86.20;;;;;;6055877;23;20470;-80
2022/06/23 11:01:53;;;;;;;7.40;3.70;;;34.90;88.70;;;;;;6051981;23;20435;-80
2022/06/23 11:04:51;;;;;;;6.77;3.30;;;35.40;87.10;;;;;;6058564;23;20435;-80
2022/06/23 11:07:36;;;;;;;6.43;3.27;;;35.50;85.50;;;;;;6054822;23;20466;-80
2022/06/23 11:10:38;;;;;;;4.80;3.43;;;35.30;82.50;;;;;;6055698;23;20434;-81
2022/06/23 11:13:18;;;;;;;6.70;3.40;;;34.50;84.00;;;;;;6053750;23;20450;-81
2022/06/23 11:15:56;;;;;;;3.60;3.10;;;34.30;83.80;;;;;;6055189;23;20789;-81
2022/06/23 11:18:39;;;;;;;6.50;3.30;;;34.30;87.60;;;;;;6055553;23;20523;-80
2022/06/23 11:21:26;;;;;;;6.00;3.60;;;34.20;85.10;;;;;;6054265;23;20444;-80
2022/06/23 11:24:01;;;;;;;7.07;3.30;;;33.70;84.60;;;;;;6056937;23;20443;-81
2022/06/23 11:26:46;;;;;;;6.63;3.57;;;33.50;86.20;;;;;;6052409;23;20482;-81
2022/06/23 11:29:35;;;;;;;6.97;3.70;;;33.60;85.10;;;;;;6056089;23;20788;-80
2022/06/23 11:32:16;;;;;;;5.87;3.37;;;33.70;84.50;;;;;;6052031;23;20846;-80
2022/06/23 11:35:01;;;;;;;5.47;3.30;;;33.90;85.10;;;;;;6054490;23;20447;-80
2022/06/23 11:37:49;;;;;;;4.07;3.13;;;34.30;84.20;;;;;;6057956;23;20427;-80
2022/06/23 11:40:43;;;;;;;6.10;3.37;;;34.20;83.80;;;;;;6050808;23;20957;-80
2022/06/23 11:43:19;;;;;;;6.30;3.83;;;33.80;84.40;;;;;;6057351;23;20477;-79
2022/06/23 11:46:03;;;;;;;4.90;3.20;;;33.90;84.30;;;;;;6049323;23;20463;-79
2022/06/23 11:49:08;;;;;;;7.80;3.77;;;34.10;85.10;;;;;;6081385;23;20974;-79
2022/06/23 11:51:58;;;;;;;5.90;3.60;;;34.20;85.40;;;;;;6079638;23;20471;-80
2022/06/23 11:54:40;;;;;;;6.83;3.63;;;34.70;84.60;;;;;;6063558;23;20436;-80
2022/06/23 11:57:19;;;;;;;4.87;3.50;;;34.80;82.90;;;;;;6044878;23;20471;-80
2022/06/23 11:59:56;;;;;;;4.70;3.50;;;34.90;82.00;;;;;;6055152;23;20484;-78
2022/06/23 12:02:23;;;;;;;6.23;3.93;;;35.10;79.50;;;;;;6077600;23;20486;-79
2022/06/23 12:05:06;;;;;;;5.87;3.77;;;35.60;78.80;;;;;;6077977;23;20483;-80
2022/06/23 12:07:51;;;;;;;5.60;3.53;;;35.50;77.00;;;;;;6081957;23;20523;-80
2022/06/23 12:10:25;;;;;;;5.13;3.47;;;35.40;79.60;;;;;;6069842;23;20460;-81
2022/06/23 12:12:58;;;;;;;4.97;3.17;;;35.30;80.50;;;;;;6057231;23;20964;-79
2022/06/23 12:15:34;;;;;;;6.70;3.70;;;35.30;78.90;;;;;;6055721;23;20492;-80
2022/06/23 12:18:09;;;;;;;5.10;3.83;;;35.10;79.50;;;;;;6057187;23;20489;-80
2022/06/23 12:20:46;;;;;;;4.80;3.43;;;34.70;77.60;;;;;;6052891;23;20427;-81
2022/06/23 12:23:19;;;;;;;8.10;4.10;;;35.00;79.10;;;;;;6053301;23;20542;-80
2022/06/23 12:25:54;;;;;;;6.23;3.90;;;35.40;79.90;;;;;;6051797;23;20463;-80
2022/06/23 12:28:28;;;;;;;5.30;3.67;;;35.20;77.40;;;;;;6055058;23;20430;-81
2022/06/23 12:31:03;;;;;;;4.77;3.80;;;35.20;77.90;;;;;;6060173;23;20508;-81
2022/06/23 12:33:36;;;;;;;9.10;4.20;;;35.20;79.00;;;;;;6058205;23;20447;-80
2022/06/23 12:36:11;;;;;;;7.70;4.03;;;35.40;79.20;;;;;;6043525;23;20485;-79
2022/06/23 12:38:43;;;;;;;5.30;3.50;;;35.60;77.00;;;;;;6055210;23;20501;-79
2022/06/23 12:41:13;;;;;;;5.50;3.67;;;35.80;76.00;;;;;;6054458;23;20547;-80
2022/06/23 12:43:58;;;;;;;8.13;4.60;;;35.60;77.10;;;;;;6054776;23;20578;-79
2022/06/23 12:46:40;;;;;;;5.83;3.60;;;35.00;75.20;;;;;;6052765;23;20454;-79
2022/06/23 12:49:21;;;;;;;6.10;3.77;;;34.90;77.00;;;;;;6059147;23;20435;-80
2022/06/23 12:52:05;;;;;;;6.70;3.47;;;35.00;75.60;;;;;;6057169;23;20450;-80
2022/06/23 12:54:56;;;;;;;6.03;3.90;;;35.00;75.20;;;;;;6044872;23;20451;-80
2022/06/23 12:57:43;;;;;;;5.73;3.90;;;35.40;75.90;;;;;;6057110;23;20443;-79
2022/06/23 13:00:14;;;;;;;4.40;3.50;;;36.10;73.70;;;;;;6063534;23;20478;-90
2022/06/23 13:02:46;;;;;;;7.60;4.03;;;36.80;71.20;;;;;;6057953;23;20490;-90
2022/06/23 13:05:19;;;;;;;8.73;4.20;;;38.00;69.80;;;;;;6054560;23;23493;-91
2022/06/23 13:07:54;;;;;;;6.57;3.93;;;39.40;68.10;;;;;;6064616;23;20439;-93
2022/06/23 13:10:26;;;;;;;12.07;6.40;;;40.00;64.80;;;;;;6060928;23;20442;-94
2022/06/23 13:13:01;;;;;;;8.43;4.10;;;41.40;63.60;;;;;;6065225;23;20922;-93
2022/06/23 13:15:39;;;;;;;6.30;4.10;;;42.30;59.60;;;;;;6061210;23;21520;-94
2022/06/23 13:18:19;;;;;;;10.27;4.40;;;44.00;56.40;;;;;;6047635;23;21046;-92
2022/06/23 13:20:50;;;;;;;11.00;6.70;;;44.40;53.20;;;;;;6060378;23;20485;-91
2022/06/23 13:23:21;;;;;;;8.33;4.40;;;45.40;53.00;;;;;;6063233;23;20524;-91
2022/06/23 13:25:53;;;;;;;6.77;4.37;;;47.30;50.00;;;;;;6046471;23;20468;-93
2022/06/23 13:28:32;;;;;;;8.30;4.37;;;47.60;47.00;;;;;;6049511;23;20489;-93
2022/06/23 13:31:07;;;;;;;6.50;4.50;;;46.80;46.30;;;;;;6061458;23;20448;-93
2022/06/23 13:33:39;;;;;;;10.43;5.63;;;45.80;46.70;;;;;;6045139;23;20435;-81